sensor_id;sensor_type;location;lat;lon;timestamp;pressure;altitude;pressure_sealevel;temperature;humidity
62548;BME280;48602;45.192;5.722;2023-06-10T00:01:18;98784.31;;;20.17;82.37
62548;BME280;48602;45.192;5.722;2023-06-10T00:03:43;98782.88;;;20.13;82.33
62548;BME280;48602;45.192;5.722;2023-06-10T00:06:09;98782.31;;;20.10;82.51
62548;BME280;48602;45.192;5.722;2023-06-10T00:08:35;98784.38;;;20.06;82.70
62548;BME280;48602;45.192;5.722;2023-06-10T00:11:02;98783.53;;;20.06;81.61
62548;BME280;48602;45.192;5.722;2023-06-10T00:13:28;98786.34;;;20.04;81.56
62548;BME280;48602;45.192;5.722;2023-06-10T00:15:53;98771.97;;;20.05;81.69
62548;BME280;48602;45.192;5.722;2023-06-10T00:18:18;98772.56;;;20.09;81.57
62548;BME280;48602;45.192;5.722;2023-06-10T00:20:46;98774.28;;;20.10;81.54
62548;BME280;48602;45.192;5.722;2023-06-10T00:23:14;98774.41;;;20.08;80.82
62548;BME280;48602;45.192;5.722;2023-06-10T00:25:39;98778.06;;;20.07;81.04
62548;BME280;48602;45.192;5.722;2023-06-10T00:28:05;98771.25;;;20.03;81.28
62548;BME280;48602;45.192;5.722;2023-06-10T00:30:30;98767.72;;;20.03;81.06
62548;BME280;48602;45.192;5.722;2023-06-10T00:32:56;98766.63;;;20.05;80.83
62548;BME280;48602;45.192;5.722;2023-06-10T00:35:21;98771.00;;;20.06;80.84
62548;BME280;48602;45.192;5.722;2023-06-10T00:37:47;98761.16;;;20.07;81.37
62548;BME280;48602;45.192;5.722;2023-06-10T00:40:12;98762.38;;;20.03;80.03
62548;BME280;48602;45.192;5.722;2023-06-10T00:42:37;98759.09;;;19.99;81.00
62548;BME280;48602;45.192;5.722;2023-06-10T00:45:03;98768.38;;;19.95;80.09
62548;BME280;48602;45.192;5.722;2023-06-10T00:47:29;98768.66;;;19.92;80.62
62548;BME280;48602;45.192;5.722;2023-06-10T00:49:56;98770.59;;;19.90;80.89
62548;BME280;48602;45.192;5.722;2023-06-10T00:52:22;98766.09;;;19.91;82.16
62548;BME280;48602;45.192;5.722;2023-06-10T00:54:49;98762.31;;;19.93;82.58
62548;BME280;48602;45.192;5.722;2023-06-10T00:57:15;98768.25;;;19.97;83.04
62548;BME280;48602;45.192;5.722;2023-06-10T00:59:41;98768.13;;;19.98;83.01
62548;BME280;48602;45.192;5.722;2023-06-10T01:02:08;98766.03;;;20.02;83.75
62548;BME280;48602;45.192;5.722;2023-06-10T01:04:34;98765.91;;;20.03;83.31
62548;BME280;48602;45.192;5.722;2023-06-10T01:10:01;98769.44;;;20.04;82.27
62548;BME280;48602;45.192;5.722;2023-06-10T01:15:04;98767.59;;;20.04;83.04
62548;BME280;48602;45.192;5.722;2023-06-10T01:17:29;98770.28;;;20.04;82.88
62548;BME280;48602;45.192;5.722;2023-06-10T01:19:56;98766.63;;;20.05;82.50
62548;BME280;48602;45.192;5.722;2023-06-10T01:22:26;98769.06;;;20.08;83.01
62548;BME280;48602;45.192;5.722;2023-06-10T01:24:57;98769.91;;;20.09;83.45
62548;BME280;48602;45.192;5.722;2023-06-10T01:27:26;98777.81;;;20.10;83.20
62548;BME280;48602;45.192;5.722;2023-06-10T01:30:02;98774.41;;;20.08;83.03
62548;BME280;48602;45.192;5.722;2023-06-10T01:32:35;98769.06;;;20.08;83.68
62548;BME280;48602;45.192;5.722;2023-06-10T01:35:03;98771.44;;;20.11;83.25
62548;BME280;48602;45.192;5.722;2023-06-10T01:37:30;98774.00;;;20.13;83.09
62548;BME280;48602;45.192;5.722;2023-06-10T01:39:58;98775.81;;;20.12;83.41
62548;BME280;48602;45.192;5.722;2023-06-10T01:42:24;98782.31;;;20.10;83.13
62548;BME280;48602;45.192;5.722;2023-06-10T01:44:51;98782.44;;;20.08;83.24
62548;BME280;48602;45.192;5.722;2023-06-10T01:47:16;98794.38;;;20.04;83.49
62548;BME280;48602;45.192;5.722;2023-06-10T01:49:43;98797.16;;;20.03;83.48
62548;BME280;48602;45.192;5.722;2023-06-10T01:52:08;98797.28;;;20.01;83.96
62548;BME280;48602;45.192;5.722;2023-06-10T01:54:33;98791.94;;;20.01;84.57
62548;BME280;48602;45.192;5.722;2023-06-10T01:57:00;98797.16;;;20.03;84.21
62548;BME280;48602;45.192;5.722;2023-06-10T01:59:26;98798.16;;;20.02;84.04
62548;BME280;48602;45.192;5.722;2023-06-10T02:01:51;98800.81;;;20.02;84.11
62548;BME280;48602;45.192;5.722;2023-06-10T02:04:17;98806.19;;;20.02;84.27
62548;BME280;48602;45.192;5.722;2023-06-10T02:06:42;98807.88;;;20.03;84.62
62548;BME280;48602;45.192;5.722;2023-06-10T02:09:07;98812.25;;;20.04;84.07
62548;BME280;48602;45.192;5.722;2023-06-10T02:11:33;98810.44;;;20.04;84.46
62548;BME280;48602;45.192;5.722;2023-06-10T02:13:58;98807.75;;;20.04;84.02
62548;BME280;48602;45.192;5.722;2023-06-10T02:16:24;98816.03;;;20.01;83.89
62548;BME280;48602;45.192;5.722;2023-06-10T02:18:50;98807.16;;;20.01;84.02
62548;BME280;48602;45.192;5.722;2023-06-10T02:21:15;98808.13;;;20.00;83.68
62548;BME280;48602;45.192;5.722;2023-06-10T02:23:41;98810.06;;;19.98;83.86
62548;BME280;48602;45.192;5.722;2023-06-10T02:26:06;98814.69;;;19.96;83.87
62548;BME280;48602;45.192;5.722;2023-06-10T02:28:31;98819.19;;;19.95;84.10
62548;BME280;48602;45.192;5.722;2023-06-10T02:30:57;98819.06;;;19.97;84.26
62548;BME280;48602;45.192;5.722;2023-06-10T02:33:22;98813.00;;;19.95;84.01
62548;BME280;48602;45.192;5.722;2023-06-10T02:35:49;98814.97;;;19.93;84.18
62548;BME280;48602;45.192;5.722;2023-06-10T02:38:15;98812.44;;;19.91;84.10
62548;BME280;48602;45.192;5.722;2023-06-10T02:40:40;98817.78;;;19.91;84.42
62548;BME280;48602;45.192;5.722;2023-06-10T02:43:05;98814.25;;;19.91;84.00
62548;BME280;48602;45.192;5.722;2023-06-10T02:45:31;98810.84;;;19.89;83.92
62548;BME280;48602;45.192;5.722;2023-06-10T02:47:56;98806.59;;;19.86;83.95
62548;BME280;48602;45.192;5.722;2023-06-10T02:50:22;98811.09;;;19.85;83.91
62548;BME280;48602;45.192;5.722;2023-06-10T02:52:48;98812.22;;;19.83;84.05
62548;BME280;48602;45.192;5.722;2023-06-10T02:55:13;98813.31;;;19.80;83.96
62548;BME280;48602;45.192;5.722;2023-06-10T02:57:39;98808.34;;;19.76;84.42
62548;BME280;48602;45.192;5.722;2023-06-10T03:00:05;98815.66;;;19.74;83.90
62548;BME280;48602;45.192;5.722;2023-06-10T03:02:35;98815.66;;;19.74;84.30
62548;BME280;48602;45.192;5.722;2023-06-10T03:05:02;98818.44;;;19.72;83.93
62548;BME280;48602;45.192;5.722;2023-06-10T03:07:27;98822.09;;;19.71;83.58
62548;BME280;48602;45.192;5.722;2023-06-10T03:09:53;98823.31;;;19.67;82.49
62548;BME280;48602;45.192;5.722;2023-06-10T03:12:18;98826.38;;;19.63;82.50
62548;BME280;48602;45.192;5.722;2023-06-10T03:14:43;98829.69;;;19.55;82.87
62548;BME280;48602;45.192;5.722;2023-06-10T03:17:09;98824.78;;;19.49;83.56
62548;BME280;48602;45.192;5.722;2023-06-10T03:19:35;98825.88;;;19.46;83.70
62548;BME280;48602;45.192;5.722;2023-06-10T03:22:16;98825.75;;;19.48;82.98
62548;BME280;48602;45.192;5.722;2023-06-10T03:24:42;98833.06;;;19.46;83.14
62548;BME280;48602;45.192;5.722;2023-06-10T03:27:12;98829.66;;;19.44;83.18
62548;BME280;48602;45.192;5.722;2023-06-10T03:29:38;98831.63;;;19.42;82.79
62548;BME280;48602;45.192;5.722;2023-06-10T03:32:04;98837.81;;;19.42;82.84
62548;BME280;48602;45.192;5.722;2023-06-10T03:34:30;98832.59;;;19.41;82.15
62548;BME280;48602;45.192;5.722;2023-06-10T03:36:56;98832.72;;;19.39;81.98
62548;BME280;48602;45.192;5.722;2023-06-10T03:39:22;98832.00;;;19.37;82.06
62548;BME280;48602;45.192;5.722;2023-06-10T03:41:49;98828.34;;;19.38;82.59
62548;BME280;48602;45.192;5.722;2023-06-10T03:44:14;98831.75;;;19.40;83.36
62548;BME280;48602;45.192;5.722;2023-06-10T03:46:40;98834.03;;;19.45;83.58
62548;BME280;48602;45.192;5.722;2023-06-10T03:49:05;98831.22;;;19.46;83.95
62548;BME280;48602;45.192;5.722;2023-06-10T03:51:30;98834.03;;;19.45;84.14
62548;BME280;48602;45.192;5.722;2023-06-10T03:53:56;98830.38;;;19.46;83.31
62548;BME280;48602;45.192;5.722;2023-06-10T03:56:21;98822.22;;;19.47;82.19
62548;BME280;48602;45.192;5.722;2023-06-10T03:58:47;98826.63;;;19.48;82.54
62548;BME280;48602;45.192;5.722;2023-06-10T04:01:12;98827.59;;;19.47;82.91
62548;BME280;48602;45.192;5.722;2023-06-10T04:03:40;98829.41;;;19.47;83.78
62548;BME280;48602;45.192;5.722;2023-06-10T04:06:07;98830.06;;;19.50;84.04
62548;BME280;48602;45.192;5.722;2023-06-10T04:08:32;98835.88;;;19.56;83.83
62548;BME280;48602;45.192;5.722;2023-06-10T04:10:58;98826.75;;;19.58;83.32
62548;BME280;48602;45.192;5.722;2023-06-10T04:13:23;98832.84;;;19.60;83.60
62548;BME280;48602;45.192;5.722;2023-06-10T04:15:49;98833.66;;;19.61;84.02
62548;BME280;48602;45.192;5.722;2023-06-10T04:18:15;98827.34;;;19.62;85.01
62548;BME280;48602;45.192;5.722;2023-06-10T04:20:41;98832.56;;;19.63;85.71
62548;BME280;48602;45.192;5.722;2023-06-10T04:23:07;98840.34;;;19.66;85.52
62548;BME280;48602;45.192;5.722;2023-06-10T04:25:33;98832.06;;;19.69;85.76
62548;BME280;48602;45.192;5.722;2023-06-10T04:27:58;98835.22;;;19.74;85.84
62548;BME280;48602;45.192;5.722;2023-06-10T04:30:24;98830.44;;;19.78;86.14
62548;BME280;48602;45.192;5.722;2023-06-10T04:32:50;98834.72;;;19.80;85.70
62548;BME280;48602;45.192;5.722;2023-06-10T04:35:15;98840.91;;;19.81;85.72
62548;BME280;48602;45.192;5.722;2023-06-10T04:37:41;98842.59;;;19.82;86.02
62548;BME280;48602;45.192;5.722;2023-06-10T04:40:07;98846.00;;;19.84;86.21
62548;BME280;48602;45.192;5.722;2023-06-10T04:42:33;98849.28;;;19.88;85.83
62548;BME280;48602;45.192;5.722;2023-06-10T04:44:59;98847.47;;;19.88;85.07
62548;BME280;48602;45.192;5.722;2023-06-10T04:47:25;98845.88;;;19.85;85.41
62548;BME280;48602;45.192;5.722;2023-06-10T04:49:51;98850.13;;;19.88;85.76
62548;BME280;48602;45.192;5.722;2023-06-10T04:52:16;98844.78;;;19.88;85.45
62548;BME280;48602;45.192;5.722;2023-06-10T04:54:43;98848.91;;;19.92;85.71
62548;BME280;48602;45.192;5.722;2023-06-10T04:57:08;98842.31;;;19.96;85.45
62548;BME280;48602;45.192;5.722;2023-06-10T04:59:34;98852.75;;;19.99;84.89
62548;BME280;48602;45.192;5.722;2023-06-10T05:02:03;98849.59;;;20.05;84.82
62548;BME280;48602;45.192;5.722;2023-06-10T05:04:28;98851.91;;;20.10;85.04
62548;BME280;48602;45.192;5.722;2023-06-10T05:06:55;98850.63;;;20.14;85.03
62548;BME280;48602;45.192;5.722;2023-06-10T05:09:20;98849.53;;;20.16;85.30
62548;BME280;48602;45.192;5.722;2023-06-10T05:11:46;98842.97;;;20.20;85.34
62548;BME280;48602;45.192;5.722;2023-06-10T05:14:11;98846.09;;;20.26;85.44
62548;BME280;48602;45.192;5.722;2023-06-10T05:16:37;98850.31;;;20.28;85.00
62548;BME280;48602;45.192;5.722;2023-06-10T05:19:03;98850.94;;;20.32;85.46
62548;BME280;48602;45.192;5.722;2023-06-10T05:21:29;98851.44;;;20.37;84.80
62548;BME280;48602;45.192;5.722;2023-06-10T05:23:54;98846.66;;;20.40;84.33
62548;BME280;48602;45.192;5.722;2023-06-10T05:26:21;98847.53;;;20.41;84.62
62548;BME280;48602;45.192;5.722;2023-06-10T05:28:46;98843.00;;;20.41;85.00
62548;BME280;48602;45.192;5.722;2023-06-10T05:31:12;98843.00;;;20.41;85.10
62548;BME280;48602;45.192;5.722;2023-06-10T05:33:38;98846.41;;;20.43;84.23
62548;BME280;48602;45.192;5.722;2023-06-10T05:36:04;98840.91;;;20.45;84.35
62548;BME280;48602;45.192;5.722;2023-06-10T05:38:29;98843.44;;;20.46;84.28
62548;BME280;48602;45.192;5.722;2023-06-10T05:40:55;98836.00;;;20.50;84.35
62548;BME280;48602;45.192;5.722;2023-06-10T05:43:22;98837.72;;;20.51;83.95
62548;BME280;48602;45.192;5.722;2023-06-10T05:45:47;98837.47;;;20.54;84.52
62548;BME280;48602;45.192;5.722;2023-06-10T05:48:14;98839.88;;;20.57;83.80
62548;BME280;48602;45.192;5.722;2023-06-10T05:50:39;98839.75;;;20.59;83.93
62548;BME280;48602;45.192;5.722;2023-06-10T05:53:07;98838.78;;;20.60;83.93
62548;BME280;48602;45.192;5.722;2023-06-10T05:55:43;98838.34;;;20.64;83.93
62548;BME280;48602;45.192;5.722;2023-06-10T05:58:08;98837.97;;;20.69;83.50
62548;BME280;48602;45.192;5.722;2023-06-10T06:00:34;98837.97;;;20.69;83.20
62548;BME280;48602;45.192;5.722;2023-06-10T06:02:59;98835.88;;;20.72;83.41
62548;BME280;48602;45.192;5.722;2023-06-10T06:05:25;98837.31;;;20.76;83.03
62548;BME280;48602;45.192;5.722;2023-06-10T06:07:50;98838.59;;;20.82;83.62
62548;BME280;48602;45.192;5.722;2023-06-10T06:10:17;98839.31;;;20.84;83.40
62548;BME280;48602;45.192;5.722;2023-06-10T06:12:43;98839.91;;;20.87;83.20
62548;BME280;48602;45.192;5.722;2023-06-10T06:15:09;98836.72;;;20.94;83.21
62548;BME280;48602;45.192;5.722;2023-06-10T06:17:35;98836.28;;;20.98;83.21
62548;BME280;48602;45.192;5.722;2023-06-10T06:20:00;98839.28;;;21.05;82.89
62548;BME280;48602;45.192;5.722;2023-06-10T06:22:26;98837.91;;;21.10;82.15
62548;BME280;48602;45.192;5.722;2023-06-10T06:24:51;98839.81;;;21.19;82.05
62548;BME280;48602;45.192;5.722;2023-06-10T06:27:17;98844.50;;;21.27;81.49
62548;BME280;48602;45.192;5.722;2023-06-10T06:29:42;98839.56;;;21.32;81.30
62548;BME280;48602;45.192;5.722;2023-06-10T06:32:08;98841.44;;;21.41;81.38
62548;BME280;48602;45.192;5.722;2023-06-10T06:34:33;98847.94;;;21.48;81.01
62548;BME280;48602;45.192;5.722;2023-06-10T06:36:58;98842.88;;;21.55;80.82
62548;BME280;48602;45.192;5.722;2023-06-10T06:39:24;98841.31;;;21.62;80.48
62548;BME280;48602;45.192;5.722;2023-06-10T06:41:49;98842.75;;;21.66;80.47
62548;BME280;48602;45.192;5.722;2023-06-10T06:44:15;98840.66;;;21.70;80.22
62548;BME280;48602;45.192;5.722;2023-06-10T06:46:40;98840.25;;;21.74;78.74
62548;BME280;48602;45.192;5.722;2023-06-10T06:49:05;98842.50;;;21.79;78.90
62548;BME280;48602;45.192;5.722;2023-06-10T06:51:31;98839.84;;;21.88;78.75
62548;BME280;48602;45.192;5.722;2023-06-10T06:53:57;98843.50;;;21.97;78.41
62548;BME280;48602;45.192;5.722;2023-06-10T06:56:24;98843.84;;;22.04;78.08
62548;BME280;48602;45.192;5.722;2023-06-10T06:58:50;98840.03;;;22.06;77.53
62548;BME280;48602;45.192;5.722;2023-06-10T07:01:15;98838.06;;;22.08;77.97
62548;BME280;48602;45.192;5.722;2023-06-10T07:03:41;98838.47;;;22.13;77.59
62548;BME280;48602;45.192;5.722;2023-06-10T07:06:06;98835.22;;;22.19;77.24
62548;BME280;48602;45.192;5.722;2023-06-10T07:08:32;98831.41;;;22.22;76.62
62548;BME280;48602;45.192;5.722;2023-06-10T07:10:57;98837.22;;;22.27;76.67
62548;BME280;48602;45.192;5.722;2023-06-10T07:13:22;98832.94;;;22.34;76.13
62548;BME280;48602;45.192;5.722;2023-06-10T07:15:48;98833.38;;;22.39;75.94
62548;BME280;48602;45.192;5.722;2023-06-10T07:18:15;98833.50;;;22.38;75.63
62548;BME280;48602;45.192;5.722;2023-06-10T07:20:41;98829.13;;;22.37;75.01
62548;BME280;48602;45.192;5.722;2023-06-10T07:23:07;98830.81;;;22.38;74.91
62548;BME280;48602;45.192;5.722;2023-06-10T07:25:32;98834.38;;;22.38;75.05
62548;BME280;48602;45.192;5.722;2023-06-10T07:27:57;98838.75;;;22.39;74.61
62548;BME280;48602;45.192;5.722;2023-06-10T07:30:23;98830.25;;;22.44;74.28
62548;BME280;48602;45.192;5.722;2023-06-10T07:32:48;98826.28;;;22.48;74.33
62548;BME280;48602;45.192;5.722;2023-06-10T07:35:14;98826.13;;;22.49;73.98
62548;BME280;48602;45.192;5.722;2023-06-10T07:37:39;98832.06;;;22.53;73.94
62548;BME280;48602;45.192;5.722;2023-06-10T07:40:05;98826.56;;;22.54;73.15
62548;BME280;48602;45.192;5.722;2023-06-10T07:42:40;98831.94;;;22.54;72.74
62548;BME280;48602;45.192;5.722;2023-06-10T07:45:06;98831.22;;;22.52;71.52
62548;BME280;48602;45.192;5.722;2023-06-10T07:47:33;98827.13;;;22.48;71.83
62548;BME280;48602;45.192;5.722;2023-06-10T07:49:58;98822.75;;;22.47;72.22
62548;BME280;48602;45.192;5.722;2023-06-10T07:52:24;98822.59;;;22.49;71.89
62548;BME280;48602;45.192;5.722;2023-06-10T07:54:49;98826.13;;;22.49;71.17
62548;BME280;48602;45.192;5.722;2023-06-10T07:57:15;98816.25;;;22.50;70.82
62548;BME280;48602;45.192;5.722;2023-06-10T07:59:40;98819.50;;;22.53;70.37
62548;BME280;48602;45.192;5.722;2023-06-10T08:02:06;98817.50;;;22.55;70.23
62548;BME280;48602;45.192;5.722;2023-06-10T08:04:31;98819.22;;;22.56;70.28
62548;BME280;48602;45.192;5.722;2023-06-10T08:06:57;98818.22;;;22.57;69.87
62548;BME280;48602;45.192;5.722;2023-06-10T08:09:22;98808.31;;;22.58;69.17
62548;BME280;48602;45.192;5.722;2023-06-10T08:11:48;98818.59;;;22.62;69.45
62548;BME280;48602;45.192;5.722;2023-06-10T08:14:14;98811.13;;;22.66;68.84
62548;BME280;48602;45.192;5.722;2023-06-10T08:16:39;98808.13;;;22.69;68.81
62548;BME280;48602;45.192;5.722;2023-06-10T08:19:05;98801.63;;;22.72;68.39
62548;BME280;48602;45.192;5.722;2023-06-10T08:21:30;98803.78;;;22.78;68.11
62548;BME280;48602;45.192;5.722;2023-06-10T08:23:56;98804.31;;;22.81;68.32
62548;BME280;48602;45.192;5.722;2023-06-10T08:26:22;98804.72;;;22.86;68.59
62548;BME280;48602;45.192;5.722;2023-06-10T08:28:47;98800.63;;;22.92;68.26
62548;BME280;48602;45.192;5.722;2023-06-10T08:31:13;98798.63;;;22.94;67.66
62548;BME280;48602;45.192;5.722;2023-06-10T08:33:38;98799.47;;;22.94;67.93
62548;BME280;48602;45.192;5.722;2023-06-10T08:36:04;98795.63;;;22.97;67.04
62548;BME280;48602;45.192;5.722;2023-06-10T08:38:30;98800.72;;;23.00;66.68
62548;BME280;48602;45.192;5.722;2023-06-10T08:40:59;98797.16;;;23.00;66.80
62548;BME280;48602;45.192;5.722;2023-06-10T08:43:33;98799.56;;;23.03;66.96
62548;BME280;48602;45.192;5.722;2023-06-10T08:46:00;98802.06;;;23.14;66.80
62548;BME280;48602;45.192;5.722;2023-06-10T08:48:29;98801.88;;;23.25;66.09
62548;BME280;48602;45.192;5.722;2023-06-10T08:50:57;98796.03;;;23.29;65.66
62548;BME280;48602;45.192;5.722;2023-06-10T08:53:24;98803.38;;;23.37;65.52
62548;BME280;48602;45.192;5.722;2023-06-10T08:55:51;98793.72;;;23.44;65.53
62548;BME280;48602;45.192;5.722;2023-06-10T08:58:20;98795.66;;;23.52;65.19
62548;BME280;48602;45.192;5.722;2023-06-10T09:00:46;98796.63;;;23.60;64.88
62548;BME280;48602;45.192;5.722;2023-06-10T09:03:11;98791.00;;;23.72;65.02
62548;BME280;48602;45.192;5.722;2023-06-10T09:05:37;98796.44;;;23.80;62.84
62548;BME280;48602;45.192;5.722;2023-06-10T09:08:04;98788.16;;;23.73;63.68
62548;BME280;48602;45.192;5.722;2023-06-10T09:10:30;98795.38;;;23.73;62.84
62548;BME280;48602;45.192;5.722;2023-06-10T09:12:57;98785.63;;;23.72;63.04
62548;BME280;48602;45.192;5.722;2023-06-10T09:15:22;98788.38;;;23.80;63.29
62548;BME280;48602;45.192;5.722;2023-06-10T09:17:48;98783.53;;;23.83;61.89
62548;BME280;48602;45.192;5.722;2023-06-10T09:20:13;98780.69;;;23.85;61.89
62548;BME280;48602;45.192;5.722;2023-06-10T09:22:42;98780.84;;;23.83;62.10
62548;BME280;48602;45.192;5.722;2023-06-10T09:25:10;98781.53;;;23.85;62.30
62548;BME280;48602;45.192;5.722;2023-06-10T09:27:47;98780.25;;;23.89;61.99
62548;BME280;48602;45.192;5.722;2023-06-10T09:30:32;98780.41;;;23.88;62.03
62548;BME280;48602;45.192;5.722;2023-06-10T09:33:03;98781.09;;;23.90;60.73
62548;BME280;48602;45.192;5.722;2023-06-10T09:35:34;98779.00;;;23.84;60.96
62548;BME280;48602;45.192;5.722;2023-06-10T09:38:00;98781.47;;;23.77;61.38
62548;BME280;48602;45.192;5.722;2023-06-10T09:40:27;98783.19;;;23.78;61.19
62548;BME280;48602;45.192;5.722;2023-06-10T09:42:59;98772.63;;;23.85;61.70
62548;BME280;48602;45.192;5.722;2023-06-10T09:45:32;98776.94;;;23.95;60.99
62548;BME280;48602;45.192;5.722;2023-06-10T09:47:57;98770.31;;;24.08;61.00
62548;BME280;48602;45.192;5.722;2023-06-10T09:50:23;98771.44;;;24.23;60.69
62548;BME280;48602;45.192;5.722;2023-06-10T09:52:50;98776.59;;;24.34;60.98
62548;BME280;48602;45.192;5.722;2023-06-10T09:55:16;98763.22;;;24.42;60.60
62548;BME280;48602;45.192;5.722;2023-06-10T09:57:42;98773.03;;;24.51;60.37
62548;BME280;48602;45.192;5.722;2023-06-10T10:00:10;98774.63;;;24.62;59.63
62548;BME280;48602;45.192;5.722;2023-06-10T10:05:13;98768.81;;;24.75;58.18
62548;BME280;48602;45.192;5.722;2023-06-10T10:07:40;98760.25;;;24.79;58.58
62548;BME280;48602;45.192;5.722;2023-06-10T10:10:06;98759.75;;;24.84;58.64
62548;BME280;48602;45.192;5.722;2023-06-10T10:12:33;98767.59;;;24.95;58.98
62548;BME280;48602;45.192;5.722;2023-06-10T10:14:59;98760.16;;;24.97;58.09
62548;BME280;48602;45.192;5.722;2023-06-10T10:17:26;98759.50;;;24.95;57.65
62548;BME280;48602;45.192;5.722;2023-06-10T10:20:04;98759.81;;;24.92;56.37
62548;BME280;48602;45.192;5.722;2023-06-10T10:22:36;98759.25;;;24.88;56.67
62548;BME280;48602;45.192;5.722;2023-06-10T10:25:08;98756.88;;;24.85;57.19
62548;BME280;48602;45.192;5.722;2023-06-10T10:27:49;98752.72;;;24.91;57.07
62548;BME280;48602;45.192;5.722;2023-06-10T10:30:17;98752.06;;;24.97;56.04
62548;BME280;48602;45.192;5.722;2023-06-10T10:32:58;98754.47;;;25.00;55.15
62548;BME280;48602;45.192;5.722;2023-06-10T10:35:26;98750.75;;;25.01;55.59
62548;BME280;48602;45.192;5.722;2023-06-10T10:37:53;98749.13;;;25.08;55.45
62548;BME280;48602;45.192;5.722;2023-06-10T10:40:20;98752.19;;;25.21;55.86
62548;BME280;48602;45.192;5.722;2023-06-10T10:42:48;98743.78;;;25.32;54.70
62548;BME280;48602;45.192;5.722;2023-06-10T10:45:14;98742.97;;;25.40;54.79
62548;BME280;48602;45.192;5.722;2023-06-10T10:47:41;98745.34;;;25.51;53.12
62548;BME280;48602;45.192;5.722;2023-06-10T10:50:18;98740.47;;;25.55;53.17
62548;BME280;48602;45.192;5.722;2023-06-10T10:53:05;98732.06;;;25.58;53.14
62548;BME280;48602;45.192;5.722;2023-06-10T10:55:31;98726.19;;;25.62;53.30
62548;BME280;48602;45.192;5.722;2023-06-10T10:58:07;98722.28;;;25.65;52.71
62548;BME280;48602;45.192;5.722;2023-06-10T11:00:42;98712.03;;;25.77;52.92
62548;BME280;48602;45.192;5.722;2023-06-10T11:03:13;98711.84;;;25.86;53.33
62548;BME280;48602;45.192;5.722;2023-06-10T11:05:57;98706.13;;;25.97;52.47
62548;BME280;48602;45.192;5.722;2023-06-10T11:08:50;98710.34;;;26.08;51.64
62548;BME280;48602;45.192;5.722;2023-06-10T11:11:23;98723.00;;;26.16;50.92
62548;BME280;48602;45.192;5.722;2023-06-10T11:16:28;98713.22;;;26.06;48.98
62548;BME280;48602;45.192;5.722;2023-06-10T11:18:54;98699.69;;;26.06;48.57
62548;BME280;48602;45.192;5.722;2023-06-10T11:21:20;98698.84;;;26.06;49.56
62548;BME280;48602;45.192;5.722;2023-06-10T11:23:48;98704.09;;;26.07;49.63
62548;BME280;48602;45.192;5.722;2023-06-10T11:31:42;98687.72;;;25.93;49.31
62548;BME280;48602;45.192;5.722;2023-06-10T11:34:08;98690.75;;;25.90;48.67
62548;BME280;48602;45.192;5.722;2023-06-10T11:36:37;98697.00;;;25.90;47.98
62548;BME280;48602;45.192;5.722;2023-06-10T11:39:04;98697.19;;;25.89;48.36
62548;BME280;48602;45.192;5.722;2023-06-10T11:41:31;98678.44;;;25.87;47.63
62548;BME280;48602;45.192;5.722;2023-06-10T11:44:02;98680.63;;;25.92;48.20
62548;BME280;48602;45.192;5.722;2023-06-10T11:46:27;98676.59;;;25.96;48.24
62548;BME280;48602;45.192;5.722;2023-06-10T11:48:54;98674.88;;;26.03;47.39
62548;BME280;48602;45.192;5.722;2023-06-10T11:51:20;98685.16;;;26.16;47.29
62548;BME280;48602;45.192;5.722;2023-06-10T11:53:50;98670.97;;;26.22;47.16
62548;BME280;48602;45.192;5.722;2023-06-10T11:56:26;98661.34;;;26.27;47.37
62548;BME280;48602;45.192;5.722;2023-06-10T11:58:57;98662.34;;;26.34;46.18
62548;BME280;48602;45.192;5.722;2023-06-10T12:01:26;98657.97;;;26.33;46.66
62548;BME280;48602;45.192;5.722;2023-06-10T12:04:04;98645.78;;;26.37;46.71
62548;BME280;48602;45.192;5.722;2023-06-10T12:09:21;98645.06;;;26.52;47.72
62548;BME280;48602;45.192;5.722;2023-06-10T12:12:06;98642.03;;;26.55;47.61
62548;BME280;48602;45.192;5.722;2023-06-10T12:14:54;98656.56;;;26.54;47.88
62548;BME280;48602;45.192;5.722;2023-06-10T12:19:57;98642.53;;;26.58;47.75
62548;BME280;48602;45.192;5.722;2023-06-10T12:22:23;98644.53;;;26.64;46.49
62548;BME280;48602;45.192;5.722;2023-06-10T12:25:00;98644.66;;;26.71;46.72
62548;BME280;48602;45.192;5.722;2023-06-10T12:27:26;98632.31;;;26.76;47.06
62548;BME280;48602;45.192;5.722;2023-06-10T12:29:55;98635.63;;;26.87;46.17
62548;BME280;48602;45.192;5.722;2023-06-10T12:32:21;98635.63;;;26.95;47.19
62548;BME280;48602;45.192;5.722;2023-06-10T12:35:02;98633.03;;;27.01;46.29
62548;BME280;48602;45.192;5.722;2023-06-10T12:37:28;98632.69;;;27.04;45.82
62548;BME280;48602;45.192;5.722;2023-06-10T12:39:53;98621.69;;;27.06;47.18
62548;BME280;48602;45.192;5.722;2023-06-10T12:42:22;98629.47;;;27.09;46.62
62548;BME280;48602;45.192;5.722;2023-06-10T12:44:53;98629.47;;;27.09;45.44
62548;BME280;48602;45.192;5.722;2023-06-10T12:47:19;98629.63;;;27.07;45.30
62548;BME280;48602;45.192;5.722;2023-06-10T12:49:44;98629.31;;;27.02;43.85
62548;BME280;48602;45.192;5.722;2023-06-10T12:52:09;98626.63;;;27.02;44.71
62548;BME280;48602;45.192;5.722;2023-06-10T12:54:35;98627.28;;;27.04;44.09
62548;BME280;48602;45.192;5.722;2023-06-10T12:57:01;98642.16;;;27.08;43.97
62548;BME280;48602;45.192;5.722;2023-06-10T12:59:27;98625.41;;;27.05;44.64
62548;BME280;48602;45.192;5.722;2023-06-10T13:01:53;98618.81;;;27.07;44.59
62548;BME280;48602;45.192;5.722;2023-06-10T13:04:19;98618.28;;;27.12;44.12
62548;BME280;48602;45.192;5.722;2023-06-10T13:06:46;98617.09;;;27.15;43.74
62548;BME280;48602;45.192;5.722;2023-06-10T13:09:13;98611.69;;;27.15;43.56
62548;BME280;48602;45.192;5.722;2023-06-10T13:11:38;98628.94;;;27.14;44.11
62548;BME280;48602;45.192;5.722;2023-06-10T13:14:04;98620.31;;;27.10;44.73
62548;BME280;48602;45.192;5.722;2023-06-10T13:16:31;98629.28;;;27.10;43.59
62548;BME280;48602;45.192;5.722;2023-06-10T13:18:57;98609.59;;;27.17;43.67
62548;BME280;48602;45.192;5.722;2023-06-10T13:21:22;98624.06;;;27.32;44.01